Time;durP1;ratioP1;P1;durP2;ratioP2;P2;SDS_P1;SDS_P2;PMS_P1;PMS_P2;Temp;Humidity;BMP_temperature;BMP_pressure;BME280_temperature;BME280_humidity;BME280_pressure;Samples;Min_cycle;Max_cycle;Signal;HPM_P1;HPM_P2
2021/06/29 00:02:19;;;;;;;40.47;26.90;;;20.60;99.90;;;;;;5055671;28;20248;-87
2021/06/29 00:04:46;;;;;;;49.90;31.90;;;20.60;99.90;;;;;;5088115;28;20636;-88
2021/06/29 00:07:12;;;;;;;56.45;32.75;;;20.60;99.90;;;;;;5075605;28;20331;-89
2021/06/29 00:09:38;;;;;;;44.60;30.35;;;20.60;99.90;;;;;;5076068;28;20265;-89
2021/06/29 00:12:04;;;;;;;52.58;31.85;;;20.50;99.90;;;;;;5075745;28;20181;-88
2021/06/29 00:14:30;;;;;;;56.58;33.05;;;20.60;99.90;;;;;;5093902;28;20179;-88
2021/06/29 00:16:55;;;;;;;45.22;28.27;;;20.60;99.90;;;;;;5075436;28;20182;-88
2021/06/29 00:19:21;;;;;;;39.08;24.15;;;20.60;99.90;;;;;;5075987;28;20595;-88
2021/06/29 00:21:48;;;;;;;45.30;25.42;;;20.80;99.90;;;;;;5093158;28;20170;-89
2021/06/29 00:24:14;;;;;;;38.10;23.92;;;20.80;99.90;;;;;;5093631;28;20251;-88
2021/06/29 00:26:41;;;;;;;53.13;30.35;;;20.80;99.90;;;;;;5075596;28;20284;-88
2021/06/29 00:29:07;;;;;;;63.55;34.65;;;20.80;99.90;;;;;;5071991;28;20188;-88
2021/06/29 00:31:33;;;;;;;61.00;34.22;;;20.80;99.90;;;;;;5055161;28;20171;-90
2021/06/29 00:33:58;;;;;;;57.90;32.55;;;20.80;99.90;;;;;;5069276;28;20265;-89
2021/06/29 00:36:24;;;;;;;61.72;34.28;;;20.80;99.90;;;;;;5076006;28;20627;-89
2021/06/29 00:38:50;;;;;;;63.67;36.65;;;20.80;99.90;;;;;;5057966;28;20680;-88
2021/06/29 00:41:16;;;;;;;64.40;37.65;;;20.70;99.90;;;;;;5056688;28;20209;-89
2021/06/29 00:43:49;;;;;;;71.25;40.05;;;20.70;99.90;;;;;;5098492;28;20211;-89
2021/06/29 00:46:16;;;;;;;54.22;32.00;;;20.70;99.90;;;;;;5078999;28;20247;-89
2021/06/29 00:48:43;;;;;;;96.45;50.25;;;20.70;99.90;;;;;;5097329;28;20162;-88
2021/06/29 00:51:11;;;;;;;120.85;59.45;;;20.70;99.90;;;;;;5097183;28;20174;-88
2021/06/29 00:53:37;;;;;;;128.75;65.13;;;20.70;99.90;;;;;;5079046;28;20181;-89
2021/06/29 00:56:05;;;;;;;108.97;57.83;;;20.70;99.90;;;;;;5078922;28;20170;-88
2021/06/29 00:58:30;;;;;;;94.28;53.13;;;20.70;99.90;;;;;;5073722;28;20166;-88
2021/06/29 01:00:59;;;;;;;99.82;50.28;;;20.50;99.90;;;;;;5059138;28;20262;-88
2021/06/29 01:03:25;;;;;;;98.55;52.60;;;20.50;99.90;;;;;;5076631;28;20181;-89
2021/06/29 01:05:51;;;;;;;103.35;52.95;;;20.50;99.90;;;;;;5070302;28;20190;-89
2021/06/29 01:08:16;;;;;;;92.18;49.25;;;20.40;99.90;;;;;;5078550;28;20257;-89
2021/06/29 01:10:42;;;;;;;91.07;50.85;;;20.40;99.90;;;;;;5078745;28;20166;-88
2021/06/29 01:13:08;;;;;;;94.05;50.35;;;20.30;99.90;;;;;;5078536;28;20624;-88
2021/06/29 01:15:34;;;;;;;83.13;47.42;;;20.30;99.90;;;;;;5078283;28;20189;-89
2021/06/29 01:18:01;;;;;;;88.78;48.95;;;20.30;99.90;;;;;;5078588;28;20228;-88
2021/06/29 01:20:32;;;;;;;83.63;47.75;;;20.30;99.90;;;;;;5078615;28;20178;-88
2021/06/29 01:23:04;;;;;;;93.97;51.28;;;20.20;99.90;;;;;;5096529;28;20182;-88
2021/06/29 01:25:33;;;;;;;83.63;47.53;;;20.20;99.90;;;;;;5096130;28;20197;-87
2021/06/29 01:31:07;;;;;;;92.43;53.00;;;20.30;99.90;;;;;;5069402;28;20515;-88
2021/06/29 01:33:33;;;;;;;106.00;55.70;;;20.10;99.90;;;;;;5080483;28;20212;-88
2021/06/29 01:36:00;;;;;;;104.95;54.65;;;20.10;99.90;;;;;;5078333;28;20177;-88
2021/06/29 01:38:26;;;;;;;91.85;53.10;;;20.10;99.90;;;;;;5063241;28;20171;-89
2021/06/29 01:40:52;;;;;;;91.10;51.80;;;20.20;99.90;;;;;;5075928;28;20166;-89
2021/06/29 01:43:23;;;;;;;89.90;49.30;;;20.20;99.90;;;;;;5058342;28;20220;-89
2021/06/29 01:45:51;;;;;;;59.70;36.53;;;20.10;99.90;;;;;;5042259;28;20202;-89
2021/06/29 01:48:21;;;;;;;49.83;27.88;;;20.00;99.90;;;;;;5068400;28;20270;-88
2021/06/29 01:50:51;;;;;;;35.63;22.08;;;20.00;99.90;;;;;;5096309;28;20170;-88
2021/06/29 01:53:17;;;;;;;28.15;19.52;;;20.00;99.90;;;;;;5077850;28;20163;-89
2021/06/29 01:55:43;;;;;;;26.13;18.52;;;19.90;99.90;;;;;;5096013;28;20611;-89
2021/06/29 01:58:10;;;;;;;22.17;17.83;;;19.90;99.90;;;;;;5095623;28;20261;-87
2021/06/29 02:00:35;;;;;;;25.90;18.70;;;19.90;99.90;;;;;;5095757;28;20178;-89
2021/06/29 02:03:01;;;;;;;31.08;18.17;;;19.90;99.90;;;;;;5077758;28;20196;-89
2021/06/29 02:05:27;;;;;;;29.95;18.02;;;20.00;99.90;;;;;;5077758;28;20194;-89
2021/06/29 02:07:53;;;;;;;23.63;18.25;;;20.10;99.90;;;;;;5077433;28;20263;-88
2021/06/29 02:10:18;;;;;;;20.13;15.80;;;20.10;99.90;;;;;;5066413;28;20209;-88
2021/06/29 02:12:45;;;;;;;22.63;14.48;;;20.10;99.90;;;;;;5073348;28;20247;-88
2021/06/29 02:15:12;;;;;;;15.15;12.93;;;19.90;99.90;;;;;;5095450;28;20168;-88
2021/06/29 02:17:38;;;;;;;14.93;11.15;;;19.90;99.90;;;;;;5094788;28;20170;-88
2021/06/29 02:20:06;;;;;;;14.25;9.98;;;19.80;99.90;;;;;;5076811;28;20235;-87
2021/06/29 02:22:32;;;;;;;8.88;7.97;;;19.80;99.90;;;;;;5076858;28;20215;-87
2021/06/29 02:24:58;;;;;;;8.35;7.55;;;19.80;99.90;;;;;;5077144;28;20166;-88
2021/06/29 02:27:24;;;;;;;11.32;6.70;;;19.80;99.90;;;;;;5095029;28;20197;-88
2021/06/29 02:29:50;;;;;;;9.05;6.32;;;19.80;99.90;;;;;;5095184;28;20170;-86
2021/06/29 02:32:17;;;;;;;6.22;5.47;;;19.70;99.90;;;;;;5094843;28;20173;-87
2021/06/29 02:34:42;;;;;;;15.18;5.35;;;19.80;99.90;;;;;;5076698;28;20162;-87
2021/06/29 02:37:08;;;;;;;6.13;5.18;;;19.70;99.90;;;;;;5076766;28;20181;-87
2021/06/29 02:39:34;;;;;;;6.40;4.90;;;19.70;99.90;;;;;;5094880;28;20168;-87
2021/06/29 02:41:59;;;;;;;9.05;4.97;;;19.70;99.90;;;;;;5076424;28;20215;-86
2021/06/29 02:44:25;;;;;;;4.80;4.50;;;19.70;99.90;;;;;;5077035;28;20177;-88
2021/06/29 02:46:51;;;;;;;5.13;4.32;;;19.60;99.90;;;;;;5094491;28;20194;-87
2021/06/29 02:49:17;;;;;;;8.80;4.30;;;19.60;99.90;;;;;;5057603;28;20174;-87
2021/06/29 02:51:42;;;;;;;6.53;3.90;;;19.50;99.90;;;;;;5060382;28;20239;-87
2021/06/29 02:54:08;;;;;;;8.60;3.13;;;19.50;99.90;;;;;;5059973;28;20170;-88
2021/06/29 02:56:40;;;;;;;3.28;3.05;;;19.50;99.90;;;;;;5076701;28;20201;-87
2021/06/29 02:59:10;;;;;;;6.18;2.50;;;19.40;99.90;;;;;;5057274;28;20179;-87
2021/06/29 03:01:36;;;;;;;4.70;3.22;;;19.40;99.90;;;;;;5073184;28;20227;-88
2021/06/29 03:04:03;;;;;;;9.10;2.75;;;19.30;99.90;;;;;;5075430;28;20189;-87
2021/06/29 03:06:29;;;;;;;3.45;3.15;;;19.20;99.90;;;;;;5094517;28;20246;-88
2021/06/29 03:08:54;;;;;;;4.97;3.00;;;19.10;99.90;;;;;;5094349;28;20220;-87
2021/06/29 03:11:20;;;;;;;7.07;2.85;;;19.10;99.90;;;;;;5094300;28;20162;-85
2021/06/29 03:13:46;;;;;;;3.95;3.15;;;19.00;99.90;;;;;;5076036;28;20607;-87
2021/06/29 03:16:11;;;;;;;11.95;3.20;;;18.90;99.90;;;;;;5059774;28;20185;-87
2021/06/29 03:18:37;;;;;;;10.68;3.47;;;18.90;99.90;;;;;;5075469;28;20630;-86
2021/06/29 03:21:06;;;;;;;7.35;3.03;;;18.80;99.90;;;;;;5093473;28;20634;-86
2021/06/29 03:23:32;;;;;;;3.33;2.60;;;18.70;99.90;;;;;;5075942;28;20203;-87
2021/06/29 03:25:58;;;;;;;7.57;2.40;;;18.70;99.90;;;;;;5059470;28;20205;-87
2021/06/29 03:28:27;;;;;;;3.42;1.95;;;18.70;99.90;;;;;;5094127;28;20177;-87
2021/06/29 03:30:52;;;;;;;5.40;2.10;;;18.60;99.90;;;;;;5076035;28;20698;-88
2021/06/29 03:33:18;;;;;;;2.25;2.00;;;18.50;99.90;;;;;;5093233;28;20257;-87
2021/06/29 03:35:44;;;;;;;3.90;2.42;;;18.40;99.90;;;;;;5093955;28;20173;-87
2021/06/29 03:38:10;;;;;;;3.22;2.58;;;18.40;99.90;;;;;;5093797;28;20166;-86
2021/06/29 03:40:35;;;;;;;2.10;1.90;;;18.30;99.90;;;;;;5093615;28;20181;-86
2021/06/29 03:43:01;;;;;;;9.88;2.00;;;18.20;99.90;;;;;;5076050;28;20177;-86
2021/06/29 03:45:27;;;;;;;3.22;2.08;;;18.20;99.90;;;;;;5059172;28;20205;-86
2021/06/29 03:47:53;;;;;;;12.15;2.05;;;18.30;99.90;;;;;;5068958;28;20267;-87
2021/06/29 03:50:18;;;;;;;2.13;1.73;;;18.30;99.90;;;;;;5055766;28;20171;-86
2021/06/29 03:52:48;;;;;;;2.97;2.30;;;18.40;99.90;;;;;;5075712;28;20178;-87
2021/06/29 03:55:13;;;;;;;4.93;1.90;;;18.40;99.90;;;;;;5075752;28;20170;-87
2021/06/29 03:57:39;;;;;;;7.65;2.25;;;18.50;99.90;;;;;;5075757;28;20177;-86
2021/06/29 04:00:07;;;;;;;2.40;2.10;;;18.60;99.90;;;;;;5093663;28;20566;-86
2021/06/29 04:02:33;;;;;;;2.90;2.13;;;18.60;99.90;;;;;;5076575;28;20186;-87
2021/06/29 04:04:59;;;;;;;5.65;3.20;;;18.50;99.90;;;;;;5075391;28;20177;-87
2021/06/29 04:07:28;;;;;;;3.53;1.95;;;18.60;99.90;;;;;;5075709;28;20208;-87
2021/06/29 04:09:54;;;;;;;8.45;3.17;;;18.70;99.90;;;;;;5075641;28;20626;-86
2021/06/29 04:12:20;;;;;;;10.25;4.47;;;18.70;99.90;;;;;;5075389;28;20563;-86
2021/06/29 04:14:46;;;;;;;12.18;5.80;;;18.70;99.90;;;;;;5075679;28;20174;-87
2021/06/29 04:17:12;;;;;;;8.88;6.25;;;18.80;99.90;;;;;;5079228;28;20177;-87
2021/06/29 04:19:40;;;;;;;7.63;6.80;;;18.80;99.90;;;;;;5078719;28;20166;-87
2021/06/29 04:22:07;;;;;;;18.15;7.57;;;18.80;99.90;;;;;;5079684;28;20189;-87
2021/06/29 04:24:33;;;;;;;15.80;10.07;;;18.80;99.90;;;;;;5078833;28;20173;-86
2021/06/29 04:26:59;;;;;;;31.27;11.95;;;18.90;99.90;;;;;;5079106;28;20221;-87
2021/06/29 04:29:25;;;;;;;21.92;13.57;;;18.80;99.90;;;;;;5097237;28;20623;-86
2021/06/29 04:31:51;;;;;;;20.67;13.18;;;18.80;99.90;;;;;;5079340;28;20174;-86
2021/06/29 04:34:17;;;;;;;14.60;11.65;;;18.90;99.90;;;;;;5058132;28;20623;-86
2021/06/29 04:36:42;;;;;;;14.80;11.55;;;18.90;99.90;;;;;;5058805;28;20200;-86
2021/06/29 04:39:08;;;;;;;17.77;10.25;;;18.90;99.90;;;;;;5076784;28;20269;-87
2021/06/29 04:41:34;;;;;;;13.23;9.93;;;18.80;99.90;;;;;;5078897;28;20177;-86
2021/06/29 04:44:00;;;;;;;22.23;11.25;;;18.80;99.90;;;;;;5062144;28;20170;-87
2021/06/29 04:46:25;;;;;;;10.93;7.70;;;18.80;99.90;;;;;;5078426;28;20228;-86
2021/06/29 04:48:54;;;;;;;14.38;8.35;;;18.80;99.90;;;;;;5096189;28;20184;-85
2021/06/29 04:51:19;;;;;;;9.10;6.25;;;18.80;99.90;;;;;;5096940;28;20173;-87
2021/06/29 04:53:45;;;;;;;6.32;5.10;;;18.70;99.90;;;;;;5062342;28;20186;-87
2021/06/29 04:56:17;;;;;;;10.88;3.67;;;18.70;99.90;;;;;;5062301;28;20205;-88
2021/06/29 04:58:44;;;;;;;6.35;3.80;;;18.60;99.90;;;;;;5096716;28;20618;-87
2021/06/29 05:01:11;;;;;;;9.85;3.20;;;18.70;99.90;;;;;;5097051;28;20174;-87
2021/06/29 05:03:36;;;;;;;6.72;2.47;;;18.70;99.90;;;;;;5078787;28;20174;-87
2021/06/29 05:06:02;;;;;;;5.63;2.35;;;18.70;99.90;;;;;;5096401;28;20185;-87
2021/06/29 05:08:28;;;;;;;4.78;2.40;;;18.70;99.90;;;;;;5078223;28;20178;-87
2021/06/29 05:10:54;;;;;;;8.52;2.00;;;18.70;99.90;;;;;;5061655;28;20178;-86
2021/06/29 05:13:19;;;;;;;5.55;2.03;;;18.70;99.90;;;;;;5078077;28;20177;-87
2021/06/29 05:15:45;;;;;;;8.43;2.47;;;18.80;99.90;;;;;;5078452;28;20541;-87
2021/06/29 05:18:11;;;;;;;3.38;2.22;;;18.80;99.90;;;;;;5075130;28;20181;-87
2021/06/29 05:20:36;;;;;;;6.90;1.63;;;18.90;99.90;;;;;;5061197;28;20219;-87
2021/06/29 05:23:02;;;;;;;4.75;2.45;;;18.90;99.90;;;;;;5096005;28;20170;-87
2021/06/29 05:25:28;;;;;;;3.05;2.38;;;18.90;99.90;;;;;;5095930;28;20170;-85
2021/06/29 05:27:54;;;;;;;7.07;2.17;;;19.00;99.90;;;;;;5095248;28;20166;-86
2021/06/29 05:30:20;;;;;;;12.98;2.40;;;19.20;99.90;;;;;;5076086;28;20586;-87
2021/06/29 05:32:46;;;;;;;5.72;2.20;;;19.30;99.90;;;;;;5076280;28;20558;-87
2021/06/29 05:35:12;;;;;;;4.70;2.00;;;19.50;99.90;;;;;;5077914;28;20223;-86
2021/06/29 05:37:37;;;;;;;3.85;2.40;;;19.60;99.90;;;;;;5077800;28;20174;-86
2021/06/29 05:40:04;;;;;;;8.57;2.40;;;19.60;99.90;;;;;;5077461;28;20181;-86
2021/06/29 05:42:29;;;;;;;3.42;2.33;;;19.60;99.90;;;;;;5077590;28;20194;-85
2021/06/29 05:44:55;;;;;;;6.30;2.75;;;19.60;99.90;;;;;;5095532;28;20652;-86
2021/06/29 05:47:22;;;;;;;12.15;2.58;;;19.80;99.90;;;;;;5095401;28;20673;-86
2021/06/29 05:49:48;;;;;;;8.23;2.92;;;19.80;99.90;;;;;;5070148;28;20250;-86
2021/06/29 05:52:15;;;;;;;4.80;3.13;;;20.10;99.90;;;;;;5077321;28;20162;-86
2021/06/29 05:54:43;;;;;;;12.32;2.75;;;20.50;99.90;;;;;;5095358;28;20166;-86
2021/06/29 05:57:09;;;;;;;4.00;2.65;;;21.20;99.90;;;;;;5077109;28;20565;-86
2021/06/29 05:59:34;;;;;;;5.13;2.58;;;22.50;99.90;;;;;;5077585;28;20189;-87
2021/06/29 06:02:00;;;;;;;6.88;2.55;;;22.70;99.90;;;;;;5077070;28;20614;-86
2021/06/29 06:04:26;;;;;;;3.20;2.60;;;22.50;99.90;;;;;;5077355;28;20182;-86
2021/06/29 06:06:52;;;;;;;5.28;3.25;;;22.40;99.90;;;;;;5077290;28;20201;-85
2021/06/29 06:09:17;;;;;;;14.93;3.33;;;22.10;99.90;;;;;;5076909;28;20268;-86
2021/06/29 06:11:43;;;;;;;6.70;3.08;;;21.90;99.90;;;;;;5076861;28;20216;-86
2021/06/29 06:14:09;;;;;;;5.38;3.63;;;21.90;99.90;;;;;;5095268;28;20253;-87
2021/06/29 06:16:34;;;;;;;7.82;3.30;;;21.80;99.90;;;;;;5076949;28;20178;-86
2021/06/29 06:19:00;;;;;;;8.93;3.50;;;22.00;99.90;;;;;;5056691;28;20169;-86
2021/06/29 06:21:26;;;;;;;6.97;3.15;;;22.10;99.90;;;;;;5073425;28;20255;-87
2021/06/29 06:23:51;;;;;;;5.72;3.28;;;22.00;99.90;;;;;;5076362;28;20166;-86
2021/06/29 06:26:17;;;;;;;13.82;3.05;;;21.80;99.90;;;;;;5059900;28;20197;-87
2021/06/29 06:28:43;;;;;;;18.48;3.80;;;21.60;99.90;;;;;;5094996;28;20166;-87
2021/06/29 06:31:08;;;;;;;11.10;3.35;;;21.50;99.90;;;;;;5076736;28;20166;-87
2021/06/29 06:33:34;;;;;;;13.10;3.58;;;21.60;99.90;;;;;;5076615;28;20162;-87
2021/06/29 06:36:00;;;;;;;4.45;3.70;;;21.50;99.90;;;;;;5094700;28;20223;-87
2021/06/29 06:38:25;;;;;;;9.85;4.05;;;21.60;99.90;;;;;;5076415;28;20174;-87
2021/06/29 06:40:51;;;;;;;8.80;3.67;;;21.70;99.90;;;;;;5076133;28;20174;-86
2021/06/29 06:43:17;;;;;;;8.05;3.78;;;21.70;99.90;;;;;;5075892;28;20260;-87
2021/06/29 06:45:43;;;;;;;9.85;3.60;;;21.70;99.90;;;;;;5094438;28;20673;-86
2021/06/29 06:48:08;;;;;;;9.85;3.88;;;21.40;99.90;;;;;;5068329;28;20183;-86
2021/06/29 06:50:34;;;;;;;15.15;4.78;;;21.10;99.90;;;;;;5074289;28;20178;-87
2021/06/29 06:53:00;;;;;;;14.93;4.63;;;20.90;99.90;;;;;;5084436;28;20624;-87
2021/06/29 06:55:26;;;;;;;6.22;4.00;;;20.90;99.90;;;;;;5055856;28;20182;-87
2021/06/29 06:57:56;;;;;;;9.13;3.80;;;20.90;99.90;;;;;;5056066;28;20211;-87
2021/06/29 07:00:23;;;;;;;6.43;4.05;;;21.00;99.90;;;;;;5073038;28;20193;-87
2021/06/29 07:02:49;;;;;;;16.92;4.30;;;21.00;99.90;;;;;;5074059;28;20155;-87
2021/06/29 07:05:15;;;;;;;6.00;4.68;;;21.00;99.90;;;;;;5055835;28;20175;-86
2021/06/29 07:07:40;;;;;;;8.00;4.55;;;20.90;99.90;;;;;;5072826;28;20214;-87
2021/06/29 07:10:26;;;;;;;4.82;4.10;;;20.80;99.90;;;;;;5058906;28;20169;-87
2021/06/29 07:12:51;;;;;;;10.38;4.70;;;20.80;99.90;;;;;;5056292;28;20202;-87
2021/06/29 07:15:17;;;;;;;6.97;5.00;;;20.70;99.90;;;;;;5074711;28;20177;-87
2021/06/29 07:17:43;;;;;;;10.32;4.72;;;20.70;99.90;;;;;;5093404;28;20186;-86
2021/06/29 07:20:09;;;;;;;6.93;4.63;;;20.50;99.90;;;;;;5076017;28;20230;-86
2021/06/29 07:22:36;;;;;;;10.07;5.70;;;20.50;99.90;;;;;;5075755;28;20170;-86
2021/06/29 07:25:05;;;;;;;9.38;5.28;;;20.60;99.90;;;;;;5075490;28;20162;-87
2021/06/29 07:27:30;;;;;;;19.58;5.55;;;20.60;99.90;;;;;;5075540;28;20194;-87
2021/06/29 07:29:56;;;;;;;7.97;5.18;;;20.70;99.90;;;;;;5075995;28;20181;-87
2021/06/29 07:32:22;;;;;;;12.35;5.68;;;20.70;99.90;;;;;;5055677;28;20170;-86
2021/06/29 07:34:48;;;;;;;12.38;5.43;;;20.60;99.90;;;;;;5073893;28;20600;-87
2021/06/29 07:37:13;;;;;;;8.65;5.28;;;20.60;99.90;;;;;;5055821;28;20610;-85
2021/06/29 07:39:39;;;;;;;8.23;6.82;;;20.70;99.90;;;;;;5073793;28;20224;-87
2021/06/29 07:42:05;;;;;;;13.07;5.70;;;20.70;99.90;;;;;;5072693;28;20257;-87
2021/06/29 07:44:30;;;;;;;8.73;5.30;;;20.90;99.90;;;;;;5073193;28;20174;-87
2021/06/29 07:46:58;;;;;;;9.48;5.75;;;21.10;99.90;;;;;;5072573;28;20198;-86
2021/06/29 07:49:24;;;;;;;8.23;5.60;;;21.20;99.90;;;;;;5093172;28;20649;-88
2021/06/29 07:51:50;;;;;;;7.05;5.50;;;21.30;99.90;;;;;;5079504;28;20265;-88
2021/06/29 07:54:17;;;;;;;7.68;4.50;;;21.60;99.90;;;;;;5079746;28;20170;-86
2021/06/29 07:56:43;;;;;;;11.32;4.90;;;21.80;99.90;;;;;;5078872;28;20212;-87
2021/06/29 07:59:09;;;;;;;9.60;6.05;;;22.00;99.90;;;;;;5079542;28;20201;-86
2021/06/29 08:01:35;;;;;;;12.88;5.95;;;22.20;99.90;;;;;;5079679;28;20177;-85
2021/06/29 08:04:00;;;;;;;10.63;6.07;;;22.50;99.90;;;;;;5097577;28;20655;-88
2021/06/29 08:06:26;;;;;;;9.00;6.25;;;22.70;99.90;;;;;;5097683;28;20225;-87
2021/06/29 08:08:52;;;;;;;6.35;5.75;;;22.70;99.90;;;;;;5079243;28;20653;-86
2021/06/29 08:11:18;;;;;;;11.20;5.90;;;22.80;99.90;;;;;;5062557;28;20178;-85
2021/06/29 08:13:44;;;;;;;11.73;5.93;;;22.80;99.90;;;;;;5079017;28;20174;-85
2021/06/29 08:16:10;;;;;;;13.85;5.78;;;23.10;99.90;;;;;;5074845;28;20174;-87
2021/06/29 08:18:37;;;;;;;13.25;6.22;;;23.20;99.90;;;;;;5061668;28;20303;-90
2021/06/29 08:21:04;;;;;;;13.63;6.68;;;23.10;99.90;;;;;;5078227;28;20178;-87
2021/06/29 08:23:30;;;;;;;9.35;5.63;;;23.10;99.90;;;;;;5097102;28;20193;-86
2021/06/29 08:25:56;;;;;;;11.32;6.25;;;23.00;99.90;;;;;;5078602;28;20204;-86
2021/06/29 08:28:22;;;;;;;11.27;6.00;;;22.70;99.90;;;;;;5079075;28;20174;-87
2021/06/29 08:30:50;;;;;;;17.90;6.60;;;22.60;99.90;;;;;;5071784;28;20170;-86
2021/06/29 08:33:20;;;;;;;11.68;6.82;;;22.80;99.90;;;;;;5058816;28;20178;-86
2021/06/29 08:35:47;;;;;;;7.40;6.80;;;22.70;99.90;;;;;;5076701;28;20159;-87
2021/06/29 08:38:14;;;;;;;8.52;7.43;;;22.40;99.90;;;;;;5058457;28;20536;-85
2021/06/29 08:40:42;;;;;;;14.75;8.40;;;22.10;99.90;;;;;;5070795;28;20265;-86
2021/06/29 08:43:09;;;;;;;16.48;8.20;;;21.90;99.90;;;;;;5078841;28;20170;-86
2021/06/29 08:45:35;;;;;;;9.45;8.13;;;22.00;99.90;;;;;;5078917;28;20637;-87
2021/06/29 08:48:02;;;;;;;11.18;7.97;;;22.20;99.90;;;;;;5078216;28;20174;-87
2021/06/29 08:50:30;;;;;;;12.68;7.95;;;22.80;99.90;;;;;;5096875;28;20170;-86
2021/06/29 08:53:01;;;;;;;11.23;7.57;;;24.30;99.90;;;;;;5096427;28;20177;-88
2021/06/29 08:55:31;;;;;;;14.77;8.38;;;25.30;99.90;;;;;;5079102;28;20169;-89
2021/06/29 08:57:57;;;;;;;11.32;8.23;;;25.90;99.90;;;;;;5096952;28;20167;-86
2021/06/29 09:00:23;;;;;;;8.57;7.05;;;26.20;99.90;;;;;;5078569;28;20165;-88
2021/06/29 09:02:48;;;;;;;13.27;7.85;;;27.20;99.90;;;;;;5076768;28;20187;-86
2021/06/29 09:05:23;;;;;;;8.32;7.53;;;27.50;99.90;;;;;;5078293;28;20174;-87
2021/06/29 09:08:10;;;;;;;14.90;8.43;;;27.30;99.90;;;;;;5093146;28;20769;-88
2021/06/29 09:10:38;;;;;;;10.82;8.25;;;27.00;99.90;;;;;;5072462;28;20227;-88
2021/06/29 09:13:05;;;;;;;11.65;8.27;;;27.10;99.90;;;;;;5077973;28;20275;-88
2021/06/29 09:15:45;;;;;;;13.57;8.80;;;27.30;99.90;;;;;;5096029;28;20253;-85
2021/06/29 09:18:14;;;;;;;13.40;7.82;;;28.50;99.90;;;;;;5079054;28;20190;-85
2021/06/29 09:20:46;;;;;;;8.80;7.78;;;29.70;99.90;;;;;;5057097;28;20178;-84
2021/06/29 09:23:21;;;;;;;9.43;8.18;;;29.90;99.90;;;;;;5075486;28;20178;-80
2021/06/29 09:25:50;;;;;;;10.77;6.68;;;29.30;99.90;;;;;;5076360;28;20314;-81
2021/06/29 09:28:22;;;;;;;8.20;6.88;;;28.50;99.90;;;;;;5077542;28;20178;-80
2021/06/29 09:30:57;;;;;;;12.98;8.45;;;27.90;99.90;;;;;;5076754;28;20173;-80
2021/06/29 09:33:26;;;;;;;13.35;8.27;;;27.70;99.90;;;;;;5095538;28;20219;-81
2021/06/29 09:35:56;;;;;;;12.93;8.75;;;27.20;99.90;;;;;;5095276;28;20236;-80
2021/06/29 09:38:35;;;;;;;20.13;8.05;;;27.10;99.90;;;;;;5094835;28;20162;-80
2021/06/29 09:41:05;;;;;;;8.85;7.50;;;27.80;99.90;;;;;;5095521;28;20154;-82
2021/06/29 09:43:42;;;;;;;12.73;7.72;;;29.20;99.90;;;;;;5087980;28;20261;-81
2021/06/29 09:46:14;;;;;;;8.55;7.40;;;28.90;99.90;;;;;;5066208;28;20613;-81
2021/06/29 09:48:44;;;;;;;7.93;7.10;;;28.70;99.90;;;;;;5084736;28;20193;-84
2021/06/29 09:51:31;;;;;;;6.82;5.45;;;31.40;99.90;;;;;;5097222;28;20177;-83
2021/06/29 09:53:59;;;;;;;12.40;6.80;;;35.20;99.90;;;;;;5101045;28;20178;-85
2021/06/29 09:56:36;;;;;;;10.50;7.32;;;35.40;99.90;;;;;;5075825;28;20254;-82
2021/06/29 09:59:02;;;;;;;10.48;7.63;;;34.70;99.90;;;;;;5076268;28;20220;-88
2021/06/29 10:01:29;;;;;;;9.02;6.82;;;35.40;99.90;;;;;;5095462;28;20169;-88
2021/06/29 10:03:56;;;;;;;8.85;6.55;;;35.30;99.90;;;;;;5083206;28;20182;-88
2021/06/29 10:06:26;;;;;;;19.35;7.38;;;36.40;99.90;;;;;;5040151;28;20248;-85
2021/06/29 10:08:54;;;;;;;9.68;6.90;;;37.50;99.90;;;;;;5056248;28;20198;-84
2021/06/29 10:11:26;;;;;;;7.25;6.60;;;38.00;99.90;;;;;;5000789;28;20209;-85
2021/06/29 10:14:02;;;;;;;9.63;6.15;;;38.30;99.90;;;;;;5012697;28;20184;-86
2021/06/29 10:17:01;;;;;;;9.45;6.70;;;38.90;99.90;;;;;;5011668;28;20180;-85
2021/06/29 10:21:59;;;;;;;10.23;7.03;;;38.40;99.90;;;;;;5012196;28;20199;-85
2021/06/29 10:24:27;;;;;;;10.90;6.95;;;37.30;99.90;;;;;;5027320;28;20557;-85
2021/06/29 10:26:56;;;;;;;9.93;7.40;;;36.30;99.90;;;;;;4998948;28;20297;-85
2021/06/29 10:29:23;;;;;;;16.83;8.30;;;34.60;99.90;;;;;;5014977;28;20182;-85
2021/06/29 10:31:51;;;;;;;16.85;8.15;;;32.80;99.90;;;;;;4999138;28;20180;-84
2021/06/29 10:34:18;;;;;;;8.18;7.30;;;31.80;99.90;;;;;;5015499;28;20172;-85
2021/06/29 10:36:55;;;;;;;7.03;6.43;;;33.00;99.90;;;;;;5015029;28;20187;-84
2021/06/29 10:39:24;;;;;;;16.27;7.32;;;34.90;99.90;;;;;;5029081;28;20203;-85
2021/06/29 10:42:05;;;;;;;8.38;6.68;;;36.80;99.90;;;;;;5034312;28;20177;-85
2021/06/29 10:44:39;;;;;;;7.97;6.18;;;38.50;99.90;;;;;;5094187;28;20162;-85
2021/06/29 10:47:29;;;;;;;12.68;6.22;;;38.60;99.10;;;;;;5094305;28;20198;-85
2021/06/29 10:49:56;;;;;;;6.03;5.45;;;37.30;99.90;;;;;;5075750;28;20186;-85
2021/06/29 10:52:32;;;;;;;8.70;5.68;;;36.80;99.90;;;;;;5094179;28;20162;-86
2021/06/29 10:54:58;;;;;;;12.55;5.20;;;36.80;99.90;;;;;;5075770;28;20708;-85
2021/06/29 10:57:25;;;;;;;7.75;5.57;;;37.10;99.70;;;;;;5075645;28;20514;-85
2021/06/29 10:59:55;;;;;;;9.93;6.28;;;37.20;99.90;;;;;;5075719;28;20256;-85
2021/06/29 11:02:31;;;;;;;7.95;5.70;;;37.10;98.50;;;;;;5094008;28;20176;-83
2021/06/29 11:05:06;;;;;;;12.80;6.40;;;35.40;99.90;;;;;;5075290;28;20203;-85
2021/06/29 11:07:32;;;;;;;8.80;5.75;;;34.30;99.90;;;;;;5090941;28;20200;-83
2021/06/29 11:09:59;;;;;;;8.25;6.15;;;33.60;99.90;;;;;;5073441;28;20249;-84
2021/06/29 11:12:27;;;;;;;9.93;6.43;;;33.10;99.90;;;;;;5073595;28;20158;-83
2021/06/29 11:14:55;;;;;;;13.80;7.85;;;32.90;99.90;;;;;;5073932;28;20166;-87
2021/06/29 11:17:22;;;;;;;12.57;7.07;;;32.30;99.90;;;;;;5055482;28;20186;-85
2021/06/29 11:20:14;;;;;;;11.13;7.15;;;31.80;99.90;;;;;;5090343;28;20257;-85
2021/06/29 11:23:01;;;;;;;9.52;8.00;;;31.80;99.90;;;;;;5093789;28;20150;-85
2021/06/29 11:25:50;;;;;;;7.75;6.95;;;31.30;99.90;;;;;;5092840;28;20657;-87
2021/06/29 11:28:43;;;;;;;21.02;8.10;;;31.20;99.90;;;;;;5075632;28;20174;-86
2021/06/29 11:31:26;;;;;;;12.55;7.00;;;31.50;99.90;;;;;;5075791;28;20185;-86
2021/06/29 11:34:04;;;;;;;10.80;7.60;;;31.50;99.90;;;;;;5093838;28;20610;-85
2021/06/29 11:36:30;;;;;;;14.10;6.97;;;31.40;99.90;;;;;;5075710;28;20619;-86
2021/06/29 11:39:18;;;;;;;9.48;6.47;;;31.40;99.90;;;;;;5084741;28;20254;-85
2021/06/29 11:41:52;;;;;;;9.38;6.20;;;31.40;99.90;;;;;;5093214;28;20627;-87
2021/06/29 11:44:18;;;;;;;6.93;6.30;;;31.40;99.90;;;;;;5063386;28;20253;-87
2021/06/29 11:46:54;;;;;;;11.55;6.43;;;32.70;99.90;;;;;;5073463;28;20273;-88
2021/06/29 11:49:28;;;;;;;15.50;6.78;;;34.50;99.90;;;;;;5055607;28;20526;-85
2021/06/29 11:52:01;;;;;;;7.75;6.85;;;35.10;99.90;;;;;;5072385;28;20613;-83
2021/06/29 11:54:32;;;;;;;13.43;7.18;;;36.00;99.90;;;;;;5100377;28;20156;-84
2021/06/29 11:57:14;;;;;;;7.20;6.32;;;34.60;99.90;;;;;;5097478;28;20162;-83
2021/06/29 11:59:40;;;;;;;13.57;7.18;;;33.20;99.90;;;;;;5105497;28;20163;-86
2021/06/29 12:02:11;;;;;;;7.63;6.93;;;32.20;99.90;;;;;;5111196;28;20170;-83
2021/06/29 12:04:55;;;;;;;10.88;8.07;;;31.50;99.90;;;;;;5099923;28;20171;-82
2021/06/29 12:07:41;;;;;;;10.35;7.35;;;30.30;99.90;;;;;;5093277;28;20193;-84
2021/06/29 12:10:11;;;;;;;17.52;7.57;;;29.20;99.90;;;;;;5074819;28;20204;-84
2021/06/29 12:12:42;;;;;;;12.57;8.00;;;28.70;99.90;;;;;;5075039;28;20166;-84
2021/06/29 12:15:27;;;;;;;10.95;8.20;;;28.50;99.90;;;;;;5075458;28;20554;-85
2021/06/29 12:18:06;;;;;;;9.38;8.32;;;28.10;99.90;;;;;;5093070;28;20173;-83
2021/06/29 12:20:42;;;;;;;19.83;10.63;;;27.90;99.90;;;;;;5075436;28;20176;-84
2021/06/29 12:23:11;;;;;;;17.02;11.02;;;27.60;99.90;;;;;;5093311;28;20165;-85
2021/06/29 12:25:43;;;;;;;16.25;10.38;;;27.50;99.90;;;;;;5093087;28;20245;-84
2021/06/29 12:28:12;;;;;;;16.73;10.13;;;27.50;99.90;;;;;;5093230;28;20215;-85
2021/06/29 12:30:45;;;;;;;16.13;11.30;;;27.60;99.90;;;;;;5074936;28;20171;-84
2021/06/29 12:33:25;;;;;;;24.98;12.82;;;27.60;99.90;;;;;;5074969;28;20223;-84
2021/06/29 12:36:00;;;;;;;22.00;13.30;;;27.90;99.90;;;;;;5075477;28;20165;-84
2021/06/29 12:38:28;;;;;;;22.10;12.23;;;28.10;99.90;;;;;;5076769;28;20257;-85
2021/06/29 12:41:19;;;;;;;22.23;13.38;;;28.50;99.90;;;;;;5096727;28;20512;-84
2021/06/29 12:43:47;;;;;;;22.27;15.18;;;28.90;99.90;;;;;;5085497;28;20283;-85
2021/06/29 12:46:21;;;;;;;20.17;13.45;;;29.20;99.90;;;;;;5061806;28;20206;-85
2021/06/29 12:49:20;;;;;;;15.85;12.80;;;29.80;99.90;;;;;;5076264;28;20175;-84
2021/06/29 12:51:49;;;;;;;22.50;14.82;;;29.90;99.90;;;;;;5076470;28;20182;-84